Time;durP1;ratioP1;P1;durP2;ratioP2;P2;SDS_P1;SDS_P2;PMS_P1;PMS_P2;Temp;Humidity;BMP_temperature;BMP_pressure;BME280_temperature;BME280_humidity;BME280_pressure;Samples;Min_cycle;Max_cycle;Signal;HPM_P1;HPM_P2
2022/11/13 00:00:04;;;;;;;1999.90;999.90;;;;;;;4.53;100.00;94935.31;5013402;28;20175;-61
2022/11/13 00:02:33;;;;;;;1999.90;999.90;;;;;;;4.52;100.00;94944.59;5013696;28;20179;-61
2022/11/13 00:04:58;;;;;;;1999.90;999.90;;;;;;;4.52;100.00;94944.59;5013611;28;20249;-61
2022/11/13 00:07:23;;;;;;;1999.90;999.90;;;;;;;4.53;100.00;94938.81;5013607;28;20172;-61
2022/11/13 00:09:48;;;;;;;1999.90;999.90;;;;;;;4.45;100.00;94939.91;5013528;28;20280;-61
2022/11/13 00:12:14;;;;;;;1999.90;999.90;;;;;;;4.39;100.00;94944.13;5014177;28;20230;-61
2022/11/13 00:14:39;;;;;;;1999.90;999.90;;;;;;;4.49;100.00;94931.81;5073792;23;20215;-57
2022/11/13 00:17:05;;;;;;;1999.90;999.90;;;;;;;4.47;100.00;94939.53;4977696;28;20200;-58
2022/11/13 00:19:30;;;;;;;1999.90;999.90;;;;;;;4.41;100.00;94927.53;4977723;28;20242;-58
2022/11/13 00:21:58;;;;;;;1999.90;999.90;;;;;;;4.36;100.00;94925.16;4977549;28;20180;-59
2022/11/13 00:24:24;;;;;;;1999.90;999.90;;;;;;;4.31;100.00;94934.41;4977695;28;20176;-59
2022/11/13 00:26:51;;;;;;;1999.90;999.90;;;;;;;4.28;100.00;94926.25;4977295;28;20192;-60
2022/11/13 00:29:17;;;;;;;1999.90;999.90;;;;;;;4.13;100.00;94924.59;4978426;28;20191;-59
2022/11/13 00:31:42;;;;;;;1999.90;999.90;;;;;;;4.26;100.00;94925.88;4978176;28;20256;-57
2022/11/13 00:34:09;;;;;;;1999.90;999.90;;;;;;;4.10;100.00;94928.03;4977491;28;20196;-59
2022/11/13 00:36:35;;;;;;;1999.90;999.90;;;;;;;4.04;100.00;94924.91;4980462;28;20187;-59
2022/11/13 00:39:00;;;;;;;1999.90;999.90;;;;;;;4.08;100.00;94919.53;4998777;28;20184;-58
2022/11/13 00:41:25;;;;;;;1999.90;999.90;;;;;;;4.22;100.00;94919.66;4980943;28;20231;-59
2022/11/13 00:43:51;;;;;;;1999.90;999.90;;;;;;;4.02;100.00;94915.63;4981478;28;20183;-58
2022/11/13 00:46:17;;;;;;;1999.90;999.90;;;;;;;4.04;100.00;94907.94;4980867;28;20199;-59
2022/11/13 00:48:42;;;;;;;1999.90;999.90;;;;;;;3.98;100.00;94917.50;4981311;28;20180;-58
2022/11/13 00:51:08;;;;;;;1999.90;999.90;;;;;;;3.99;100.00;94900.16;4980730;28;20269;-60
2022/11/13 00:53:33;;;;;;;1999.90;999.90;;;;;;;3.83;100.00;94905.03;4980688;28;20543;-59
2022/11/13 00:55:59;;;;;;;1999.90;999.90;;;;;;;3.90;100.00;94891.59;4980696;28;20195;-59
2022/11/13 00:58:24;;;;;;;1999.90;999.90;;;;;;;3.94;100.00;94876.19;4980952;28;20235;-59
2022/11/13 01:00:50;;;;;;;1999.90;999.90;;;;;;;4.05;100.00;94877.06;4981275;28;20234;-59
2022/11/13 01:03:16;;;;;;;1999.90;999.90;;;;;;;4.03;100.00;94871.25;4980428;28;20191;-59
2022/11/13 01:05:44;;;;;;;1999.90;999.90;;;;;;;4.05;100.00;94855.47;4977529;28;20195;-59
2022/11/13 01:08:11;;;;;;;1999.90;999.90;;;;;;;3.95;100.00;94848.03;4977613;28;20173;-60
2022/11/13 01:10:43;;;;;;;1999.90;999.90;;;;;;;3.85;100.00;94851.44;4960940;28;20183;-51
2022/11/13 01:13:08;;;;;;;1999.90;999.90;;;;;;;3.86;100.00;94831.41;4977609;28;20296;-53
2022/11/13 01:15:38;;;;;;;1999.90;999.90;;;;;;;3.88;100.00;94834.47;4973689;28;20297;-54
2022/11/13 01:18:03;;;;;;;1999.90;999.90;;;;;;;3.96;100.00;94825.31;4957925;29;20177;-52
2022/11/13 01:20:28;;;;;;;1999.90;999.90;;;;;;;4.10;100.00;94819.97;4974026;28;20285;-55
2022/11/13 01:22:54;;;;;;;1999.90;999.90;;;;;;;4.05;100.00;94817.63;4958130;29;20247;-52
2022/11/13 01:25:19;;;;;;;1999.90;999.90;;;;;;;4.04;100.00;94816.84;4957672;29;20213;-56
2022/11/13 01:27:44;;;;;;;1999.90;999.90;;;;;;;4.00;100.00;94809.91;4958528;29;20184;-58
2022/11/13 01:30:10;;;;;;;1999.90;999.90;;;;;;;4.02;100.00;94812.97;4957840;29;20178;-59
2022/11/13 01:32:35;;;;;;;1999.90;999.90;;;;;;;4.01;100.00;94811.44;4974399;28;20180;-59
2022/11/13 01:35:01;;;;;;;1999.90;999.90;;;;;;;4.01;100.00;94811.44;4973916;28;20208;-59
2022/11/13 01:37:26;;;;;;;1999.90;999.90;;;;;;;4.02;100.00;94810.28;4957580;29;20176;-59
2022/11/13 01:39:52;;;;;;;1999.90;999.90;;;;;;;4.12;100.00;94801.47;4957682;29;20224;-59
2022/11/13 01:42:17;;;;;;;1999.90;999.90;;;;;;;4.03;100.00;94806.44;4973855;28;20178;-59
2022/11/13 01:44:49;;;;;;;1999.90;999.90;;;;;;;4.04;100.00;94805.28;4957302;29;20229;-63
2022/11/13 01:47:16;;;;;;;1999.90;999.90;;;;;;;3.97;100.00;94807.94;4957101;28;20702;-64
2022/11/13 01:49:43;;;;;;;1999.90;999.90;;;;;;;3.80;100.00;94816.69;4957590;29;20236;-64
2022/11/13 01:52:13;;;;;;;1999.90;999.90;;;;;;;3.98;100.00;94809.47;4973640;28;20181;-65
2022/11/13 01:54:47;;;;;;;1999.90;999.90;;;;;;;3.95;100.00;94811.03;4957187;29;20208;-64
2022/11/13 01:57:14;;;;;;;1999.90;999.90;;;;;;;3.83;100.00;94805.13;4956991;29;20169;-64
2022/11/13 01:59:45;;;;;;;1999.90;999.90;;;;;;;3.88;100.00;94804.78;4956984;29;20204;-64
2022/11/13 02:02:11;;;;;;;1999.90;999.90;;;;;;;3.67;100.00;94818.13;4957509;29;20176;-60
2022/11/13 02:04:36;;;;;;;1999.90;999.90;;;;;;;3.62;100.00;94821.16;4973236;28;20208;-65
2022/11/13 02:07:12;;;;;;;1999.90;999.90;;;;;;;3.56;100.00;94806.47;4973269;28;20280;-66
2022/11/13 02:09:46;;;;;;;1999.90;999.90;;;;;;;3.68;100.00;94819.69;4973507;28;20172;-64
2022/11/13 02:12:15;;;;;;;1999.90;999.90;;;;;;;3.66;100.00;94813.84;4957102;29;20200;-64
2022/11/13 02:14:44;;;;;;;1999.90;999.90;;;;;;;3.64;100.00;94813.47;4973986;28;20209;-65
2022/11/13 02:17:16;;;;;;;1999.90;999.90;;;;;;;3.68;100.00;94809.63;4976912;28;20173;-64
2022/11/13 02:19:47;;;;;;;1999.90;999.90;;;;;;;3.65;100.00;94807.69;4960658;28;20180;-64
2022/11/13 02:22:34;;;;;;;1999.90;999.90;;;;;;;3.71;100.00;94802.75;4960232;28;20175;-64
2022/11/13 02:25:02;;;;;;;1999.90;999.90;;;;;;;3.71;100.00;94786.53;4976563;28;20173;-59
2022/11/13 02:27:39;;;;;;;1999.90;999.90;;;;;;;3.63;100.00;94801.09;4976014;28;20191;-59
2022/11/13 02:30:20;;;;;;;1999.90;999.90;;;;;;;3.68;100.00;94784.59;4960130;28;20211;-60
2022/11/13 02:32:49;;;;;;;1999.90;999.90;;;;;;;3.67;100.00;94774.94;4976430;28;20532;-59
2022/11/13 02:35:28;;;;;;;1999.90;999.90;;;;;;;3.66;100.00;94773.38;4959668;28;20212;-59
2022/11/13 02:37:55;;;;;;;1999.90;999.90;;;;;;;3.66;100.00;94767.97;4975789;28;20184;-59
2022/11/13 02:40:22;;;;;;;1999.90;999.90;;;;;;;3.58;100.00;94760.97;4975749;28;20173;-63
2022/11/13 02:42:47;;;;;;;1999.90;999.90;;;;;;;3.65;100.00;94750.22;4975754;28;20629;-59
2022/11/13 02:45:13;;;;;;;1999.90;999.90;;;;;;;3.69;100.00;94745.63;4975240;28;20189;-60
2022/11/13 02:47:38;;;;;;;1999.90;999.90;;;;;;;3.76;100.00;94746.47;4959501;28;20268;-59
2022/11/13 02:50:05;;;;;;;1999.90;999.90;;;;;;;3.79;100.00;94740.28;4975943;28;20196;-58
2022/11/13 02:52:30;;;;;;;1999.90;999.90;;;;;;;3.83;100.00;94737.63;4975200;28;20177;-60
2022/11/13 02:54:55;;;;;;;1999.90;999.90;;;;;;;3.80;100.00;94738.38;4958979;28;20207;-59
2022/11/13 02:57:21;;;;;;;1999.90;999.90;;;;;;;3.75;100.00;94736.03;4959903;28;20173;-54
2022/11/13 02:59:46;;;;;;;1999.90;999.90;;;;;;;3.68;100.00;94734.06;4959552;28;20180;-59
2022/11/13 03:02:12;;;;;;;1999.90;999.90;;;;;;;3.73;100.00;94719.44;4975974;28;20284;-60
2022/11/13 03:04:37;;;;;;;1999.90;999.90;;;;;;;3.79;100.00;94712.53;4975088;28;20232;-60
2022/11/13 03:07:02;;;;;;;1999.90;999.90;;;;;;;3.70;100.00;94712.09;4975885;28;20259;-60
2022/11/13 03:09:28;;;;;;;1999.90;999.90;;;;;;;3.81;100.00;94708.31;4959597;28;20168;-60
2022/11/13 03:11:53;;;;;;;1999.90;999.90;;;;;;;3.81;100.00;94708.31;4959672;28;20182;-60
2022/11/13 03:14:18;;;;;;;1999.90;999.90;;;;;;;3.95;100.00;94704.91;4975466;28;20196;-60
2022/11/13 03:16:44;;;;;;;1999.90;999.90;;;;;;;3.94;100.00;94719.56;4959333;28;20228;-59
2022/11/13 03:19:09;;;;;;;1999.90;999.90;;;;;;;3.95;100.00;94730.00;4959193;28;20180;-57
2022/11/13 03:21:34;;;;;;;1999.90;999.90;;;;;;;3.75;100.00;94733.34;4974771;28;20259;-56
2022/11/13 03:24:01;;;;;;;1999.90;999.90;;;;;;;3.60;100.00;94742.50;4974798;28;20173;-57
2022/11/13 03:26:29;;;;;;;1999.90;999.90;;;;;;;3.48;100.00;94741.63;4974908;28;20634;-57
2022/11/13 03:28:55;;;;;;;1999.90;999.90;;;;;;;3.37;100.00;94758.88;4976106;28;20240;-57
2022/11/13 03:31:20;;;;;;;1999.90;999.90;;;;;;;3.37;100.00;94759.66;4975091;28;20180;-56
2022/11/13 03:33:46;;;;;;;1999.90;999.90;;;;;;;3.34;100.00;94757.72;4974748;28;20173;-59
2022/11/13 03:36:11;;;;;;;1999.90;999.90;;;;;;;3.24;100.00;94753.00;4959428;28;20259;-56
2022/11/13 03:38:36;;;;;;;1999.90;999.90;;;;;;;3.34;100.00;94741.53;4974982;28;20196;-57
2022/11/13 03:41:02;;;;;;;1999.90;999.90;;;;;;;3.12;100.00;94744.41;4974887;28;20188;-57
2022/11/13 03:43:28;;;;;;;1999.90;999.90;;;;;;;3.15;100.00;94739.06;4974780;28;20180;-56
2022/11/13 03:45:53;;;;;;;1999.90;999.90;;;;;;;3.25;100.00;94737.59;4974847;28;20180;-54
2022/11/13 03:48:19;;;;;;;1999.90;999.90;;;;;;;3.28;100.00;94731.47;4959040;28;20184;-57
2022/11/13 03:50:47;;;;;;;1999.90;999.90;;;;;;;3.30;100.00;94729.94;4975290;28;20227;-57
2022/11/13 03:53:14;;;;;;;1999.90;999.90;;;;;;;3.37;100.00;94726.50;4958779;28;20661;-56
2022/11/13 03:55:40;;;;;;;1999.90;999.90;;;;;;;3.37;100.00;94730.00;4974723;28;20291;-56
2022/11/13 03:58:05;;;;;;;1999.90;999.90;;;;;;;3.34;100.00;94728.03;4974826;28;20307;-56
2022/11/13 04:00:31;;;;;;;1999.90;999.90;;;;;;;3.18;100.00;94735.59;4974717;28;20169;-57
2022/11/13 04:02:56;;;;;;;1999.90;999.90;;;;;;;3.15;100.00;94744.44;4975316;28;20532;-54
2022/11/13 04:05:22;;;;;;;1999.90;999.90;;;;;;;3.22;100.00;94749.91;4958497;28;20200;-56
2022/11/13 04:07:47;;;;;;;1999.90;999.90;;;;;;;3.14;100.00;94748.28;4975307;28;20180;-55
2022/11/13 04:10:13;;;;;;;1999.90;999.90;;;;;;;3.27;100.00;94736.06;4977178;28;20183;-58
2022/11/13 04:12:39;;;;;;;1999.90;999.90;;;;;;;3.21;100.00;94747.56;4962466;28;20268;-60
2022/11/13 04:15:05;;;;;;;1999.90;999.90;;;;;;;3.14;100.00;94747.50;4977835;28;20255;-59
2022/11/13 04:17:31;;;;;;;1999.90;999.90;;;;;;;3.11;100.00;94749.03;4962897;28;20176;-59
2022/11/13 04:19:56;;;;;;;1999.90;999.90;;;;;;;3.11;100.00;94759.03;4978821;28;20165;-60
2022/11/13 04:22:21;;;;;;;1999.90;999.90;;;;;;;3.10;100.00;94760.94;4962103;28;20173;-59
2022/11/13 04:24:47;;;;;;;1999.90;999.90;;;;;;;3.17;100.00;94752.94;4962350;28;20292;-59
2022/11/13 04:27:12;;;;;;;1999.90;999.90;;;;;;;3.11;100.00;94765.22;4978346;28;20239;-60
2022/11/13 04:29:38;;;;;;;1999.90;999.90;;;;;;;3.00;100.00;94756.25;4977774;28;20177;-65
2022/11/13 04:32:03;;;;;;;1999.90;999.90;;;;;;;2.94;100.00;94765.03;4962496;28;20181;-65
2022/11/13 04:34:29;;;;;;;1999.90;999.90;;;;;;;2.99;100.00;94762.00;4978025;28;20200;-66
2022/11/13 04:36:54;;;;;;;1999.90;999.90;;;;;;;2.76;100.00;94769.44;4978276;28;20217;-65
2022/11/13 04:39:19;;;;;;;1999.90;999.90;;;;;;;2.87;100.00;94760.34;4978477;28;20176;-65
2022/11/13 04:44:29;;;;;;;1999.90;999.90;;;;;;;2.97;100.00;94754.28;4979281;28;20175;-65
2022/11/13 04:46:54;;;;;;;1999.90;999.90;;;;;;;2.97;100.00;94754.28;4962146;28;20176;-65
2022/11/13 04:49:19;;;;;;;1999.90;999.90;;;;;;;3.03;100.00;94752.78;4962405;28;20235;-58
2022/11/13 04:51:45;;;;;;;1999.90;999.90;;;;;;;3.04;100.00;94746.28;4961832;28;20169;-65
2022/11/13 04:54:10;;;;;;;1999.90;999.90;;;;;;;3.01;100.00;94757.00;4961392;28;20169;-64
2022/11/13 04:56:35;;;;;;;1999.90;999.90;;;;;;;2.96;100.00;94768.88;4977838;28;20179;-67
2022/11/13 04:59:01;;;;;;;1999.90;999.90;;;;;;;2.89;100.00;94760.75;4961363;28;20339;-64
2022/11/13 05:01:26;;;;;;;1999.90;999.90;;;;;;;2.90;100.00;94765.00;4961792;28;20200;-64
2022/11/13 05:03:51;;;;;;;1999.90;999.90;;;;;;;2.79;100.00;94774.88;4977479;28;20201;-64
2022/11/13 05:06:17;;;;;;;1999.90;999.90;;;;;;;2.84;100.00;94771.09;4977557;28;20235;-64
2022/11/13 05:08:42;;;;;;;1999.90;999.90;;;;;;;2.89;100.00;94771.53;4977150;28;20203;-59
2022/11/13 05:11:08;;;;;;;1999.90;999.90;;;;;;;2.72;100.00;94795.59;4961221;28;20255;-59
2022/11/13 05:13:35;;;;;;;1999.90;999.90;;;;;;;2.84;100.00;94771.84;4977321;28;20283;-59
2022/11/13 05:16:09;;;;;;;1999.90;999.90;;;;;;;2.54;100.00;94789.22;4977273;28;20224;-59
2022/11/13 05:18:36;;;;;;;1999.90;999.90;;;;;;;2.66;100.00;94778.97;4961855;28;20267;-60
2022/11/13 05:21:03;;;;;;;1999.90;999.90;;;;;;;2.53;100.00;94769.59;4976279;28;20191;-60
2022/11/13 05:23:29;;;;;;;1999.90;999.90;;;;;;;2.53;100.00;94756.13;4977206;28;20220;-60
2022/11/13 05:26:11;;;;;;;1999.90;999.90;;;;;;;2.48;100.00;94752.97;4961732;28;20209;-55
2022/11/13 05:28:38;;;;;;;1999.90;999.90;;;;;;;2.69;100.00;94753.97;4977785;28;20264;-59
2022/11/13 05:31:10;;;;;;;1999.90;999.90;;;;;;;2.73;100.00;94741.31;4961728;28;20332;-60
2022/11/13 05:33:36;;;;;;;1999.90;999.90;;;;;;;2.74;100.00;94742.84;4977028;28;20187;-60
2022/11/13 05:36:21;;;;;;;1999.90;999.90;;;;;;;2.72;100.00;94728.22;4976711;28;20204;-60
2022/11/13 05:38:46;;;;;;;1999.90;999.90;;;;;;;2.63;100.00;94739.28;4977526;28;20172;-61
2022/11/13 05:41:15;;;;;;;1999.90;999.90;;;;;;;2.69;100.00;94726.25;4960844;28;20193;-60
2022/11/13 05:43:41;;;;;;;1999.90;999.90;;;;;;;2.67;100.00;94729.34;4977555;28;20686;-53
2022/11/13 05:46:21;;;;;;;1999.90;999.90;;;;;;;2.56;100.00;94717.66;4976942;28;20217;-66
2022/11/13 05:48:51;;;;;;;1999.90;999.90;;;;;;;2.54;100.00;94733.41;4977108;28;20187;-63
2022/11/13 05:51:19;;;;;;;1999.90;999.90;;;;;;;2.61;100.00;94719.22;4977522;28;20177;-63
2022/11/13 05:53:45;;;;;;;1999.90;999.90;;;;;;;2.57;100.00;94719.22;4976926;28;20204;-63
2022/11/13 05:56:17;;;;;;;1999.90;999.90;;;;;;;2.65;100.00;94707.34;4976851;28;20289;-63
2022/11/13 05:58:43;;;;;;;1999.90;999.90;;;;;;;2.55;100.00;94704.56;4976808;28;20176;-65
2022/11/13 06:01:16;;;;;;;1999.90;999.90;;;;;;;2.60;100.00;94702.31;4976618;28;20185;-60
2022/11/13 06:03:42;;;;;;;1999.90;999.90;;;;;;;2.57;100.00;94692.28;4960108;28;20201;-55
2022/11/13 06:06:10;;;;;;;1999.90;999.90;;;;;;;2.56;100.00;94698.81;4976460;28;20227;-54
2022/11/13 06:08:36;;;;;;;1999.90;999.90;;;;;;;2.56;100.00;94687.25;4976688;28;20216;-52
2022/11/13 06:11:04;;;;;;;1999.90;999.90;;;;;;;2.61;100.00;94689.59;4976953;28;20204;-56
2022/11/13 06:13:30;;;;;;;1999.90;999.90;;;;;;;2.68;100.00;94686.97;4976879;28;20275;-55
2022/11/13 06:16:01;;;;;;;1999.90;999.90;;;;;;;2.60;100.00;94691.53;4959920;28;20268;-57
2022/11/13 06:18:26;;;;;;;1999.90;999.90;;;;;;;2.76;100.00;94678.59;4976338;28;20248;-58
2022/11/13 06:20:52;;;;;;;1999.90;999.90;;;;;;;2.75;100.00;94676.25;4976490;28;20284;-65
2022/11/13 06:23:17;;;;;;;1999.90;999.90;;;;;;;2.55;100.00;94683.75;4976020;28;20239;-66
2022/11/13 06:25:42;;;;;;;1999.90;999.90;;;;;;;2.37;100.00;94688.19;4976057;28;20215;-65
2022/11/13 06:28:08;;;;;;;1999.90;999.90;;;;;;;2.44;100.00;94682.13;4976301;28;20227;-65
2022/11/13 06:30:33;;;;;;;1999.90;999.90;;;;;;;2.52;100.00;94683.75;4975905;28;20263;-66
2022/11/13 06:32:58;;;;;;;1999.90;999.90;;;;;;;2.53;100.00;94691.47;4975578;28;20184;-66
2022/11/13 06:35:24;;;;;;;1999.90;999.90;;;;;;;2.59;100.00;94678.44;4960556;28;20287;-68
2022/11/13 06:37:50;;;;;;;1999.90;999.90;;;;;;;2.64;100.00;94673.47;4960383;28;20181;-59
2022/11/13 06:40:15;;;;;;;1999.90;999.90;;;;;;;2.60;100.00;94679.97;4959868;28;20186;-68
2022/11/13 06:42:40;;;;;;;1999.90;999.90;;;;;;;2.65;100.00;94680.41;4959359;28;20275;-53
2022/11/13 06:45:06;;;;;;;1999.90;999.90;;;;;;;2.60;100.00;94693.44;4975825;28;20176;-53
2022/11/13 06:47:32;;;;;;;1999.90;999.90;;;;;;;2.53;100.00;94688.75;4959905;28;20240;-51
2022/11/13 06:49:57;;;;;;;1999.90;999.90;;;;;;;2.54;100.00;94698.38;4976198;28;20240;-53
2022/11/13 06:52:22;;;;;;;1999.90;999.90;;;;;;;2.45;100.00;94695.19;4959662;28;20276;-55
2022/11/13 06:54:48;;;;;;;1999.90;999.90;;;;;;;2.54;100.00;94678.75;4959419;28;20206;-53
2022/11/13 06:57:13;;;;;;;1999.90;999.90;;;;;;;2.52;100.00;94668.34;4959225;28;20172;-64
2022/11/13 06:59:38;;;;;;;1999.90;999.90;;;;;;;2.39;100.00;94675.13;4959502;28;20173;-53
2022/11/13 07:02:05;;;;;;;1999.90;999.90;;;;;;;2.56;100.00;94671.88;4959380;28;20185;-55
2022/11/13 07:04:30;;;;;;;1999.90;999.90;;;;;;;2.47;100.00;94684.06;4959306;28;20217;-54
2022/11/13 07:06:55;;;;;;;1999.90;999.90;;;;;;;2.49;100.00;94695.25;4975837;28;20223;-55
2022/11/13 07:09:21;;;;;;;1999.90;999.90;;;;;;;2.32;100.00;94715.47;4975622;28;20187;-55
2022/11/13 07:11:46;;;;;;;1999.90;999.90;;;;;;;2.29;100.00;94705.41;4975225;28;20215;-52
2022/11/13 07:14:12;;;;;;;1999.90;999.90;;;;;;;2.42;100.00;94698.66;4959061;28;20177;-54
2022/11/13 07:16:37;;;;;;;1999.90;999.90;;;;;;;2.48;100.00;94699.84;4959223;28;20283;-60
2022/11/13 07:19:03;;;;;;;1999.90;999.90;;;;;;;2.49;100.00;94695.25;4974792;28;20181;-59
2022/11/13 07:21:28;;;;;;;1999.90;999.90;;;;;;;2.48;100.00;94694.47;4959669;28;20176;-59
2022/11/13 07:23:54;;;;;;;1999.90;999.90;;;;;;;2.50;100.00;94692.19;4975573;28;20208;-59
2022/11/13 07:26:20;;;;;;;1999.90;999.90;;;;;;;2.74;100.00;94688.97;4975292;28;20191;-59
2022/11/13 07:28:47;;;;;;;1999.90;999.90;;;;;;;2.59;100.00;94711.53;4958543;28;20181;-60
2022/11/13 07:31:14;;;;;;;1999.90;999.90;;;;;;;2.55;100.00;94699.94;4958848;28;20181;-59
2022/11/13 07:33:39;;;;;;;1999.90;999.90;;;;;;;2.53;100.00;94712.22;4959355;28;20176;-58
2022/11/13 07:36:05;;;;;;;1999.90;999.90;;;;;;;2.54;100.00;94722.63;4974960;28;20204;-59
2022/11/13 07:38:31;;;;;;;1999.90;999.90;;;;;;;2.60;100.00;94731.16;4974765;28;20185;-59
2022/11/13 07:40:57;;;;;;;1999.90;999.90;;;;;;;2.70;100.00;94750.13;4959295;28;20176;-59
2022/11/13 07:43:23;;;;;;;1999.90;999.90;;;;;;;2.56;100.00;94760.78;4958652;28;20183;-59
2022/11/13 07:45:53;;;;;;;1999.90;999.90;;;;;;;2.53;100.00;94783.06;4975062;28;20177;-59
2022/11/13 07:48:20;;;;;;;1999.90;999.90;;;;;;;2.61;100.00;94792.78;4974736;28;20173;-59
2022/11/13 07:50:45;;;;;;;1999.90;999.90;;;;;;;2.82;100.00;94790.34;4958659;28;20200;-59
2022/11/13 07:53:11;;;;;;;1999.90;999.90;;;;;;;2.84;100.00;94779.19;4958341;28;20211;-61
2022/11/13 07:55:36;;;;;;;1999.90;999.90;;;;;;;2.95;100.00;94788.16;4974597;28;20227;-60
2022/11/13 07:58:02;;;;;;;1999.90;999.90;;;;;;;2.95;100.00;94797.00;4958994;28;20181;-61
2022/11/13 08:00:30;;;;;;;1999.90;999.90;;;;;;;3.11;100.00;94808.38;4975441;28;20185;-60
2022/11/13 08:02:55;;;;;;;1999.90;999.90;;;;;;;2.93;100.00;94823.56;4974632;28;20211;-60
2022/11/13 08:05:21;;;;;;;1999.90;999.90;;;;;;;2.96;100.00;94822.81;4958486;28;20200;-63
2022/11/13 08:07:51;;;;;;;1999.90;999.90;;;;;;;3.04;100.00;94819.06;4974964;28;20177;-59
2022/11/13 08:10:18;;;;;;;1999.90;999.90;;;;;;;3.18;100.00;94830.00;4958311;28;20259;-73
2022/11/13 08:12:44;;;;;;;1999.90;999.90;;;;;;;3.25;100.00;94818.50;4958695;28;20204;-59
2022/11/13 08:15:10;;;;;;;1999.90;999.90;;;;;;;3.34;100.00;94832.47;4958283;28;20384;-59
2022/11/13 08:17:36;;;;;;;1999.90;999.90;;;;;;;3.41;100.00;94844.13;4975046;28;20176;-60
2022/11/13 08:20:02;;;;;;;1999.90;999.90;;;;;;;3.70;100.00;94818.16;4958939;28;20181;-60
2022/11/13 08:22:29;;;;;;;1999.90;999.90;;;;;;;3.80;100.00;94833.66;4958328;28;20189;-60
2022/11/13 08:24:54;;;;;;;1999.90;999.90;;;;;;;4.11;100.00;94827.72;4958293;28;20184;-60
2022/11/13 08:27:20;;;;;;;1999.90;999.90;;;;;;;4.26;100.00;94829.34;4958380;28;20191;-60
2022/11/13 08:29:46;;;;;;;1999.90;999.90;;;;;;;4.40;100.00;94855.72;4958165;28;20184;-61
2022/11/13 08:32:16;;;;;;;1999.90;999.90;;;;;;;4.42;100.00;94880.41;4974484;28;20177;-58
2022/11/13 08:34:42;;;;;;;1999.90;999.90;;;;;;;4.35;100.00;94902.78;4974317;28;20204;-61
2022/11/13 08:37:08;;;;;;;1999.90;999.90;;;;;;;4.51;100.00;94932.25;4958228;28;20185;-59
2022/11/13 08:39:34;;;;;;;1999.90;999.90;;;;;;;4.50;100.00;94968.50;4974890;28;20180;-59
2022/11/13 08:42:00;;;;;;;1999.90;999.90;;;;;;;4.28;100.00;95053.25;4974081;28;20188;-58
2022/11/13 08:44:26;;;;;;;1999.90;999.90;;;;;;;4.21;100.00;95093.72;4974842;28;20243;-60
2022/11/13 08:46:51;;;;;;;1999.90;999.90;;;;;;;4.09;100.00;95131.78;4958150;28;20178;-59
2022/11/13 08:49:16;;;;;;;1999.90;999.90;;;;;;;4.03;100.00;95154.84;4974438;28;20170;-63
2022/11/13 08:51:42;;;;;;;1999.90;999.90;;;;;;;4.14;100.00;95166.56;4958124;28;20178;-58
2022/11/13 08:54:07;;;;;;;1999.90;999.90;;;;;;;4.14;100.00;95186.28;4974066;28;20177;-59
2022/11/13 08:56:32;;;;;;;1999.90;999.90;;;;;;;4.04;100.00;95197.72;4975615;28;20177;-55
2022/11/13 08:58:58;;;;;;;1999.90;999.90;;;;;;;3.93;100.00;95204.13;4978062;28;20177;-58
2022/11/13 09:01:23;;;;;;;1999.90;999.90;;;;;;;4.18;100.00;95221.47;4977616;28;20177;-60
2022/11/13 09:03:48;;;;;;;1999.90;999.90;;;;;;;4.13;100.00;95235.25;4977560;28;20205;-59
2022/11/13 09:06:14;;;;;;;1999.90;999.90;;;;;;;4.44;100.00;95224.09;4961527;28;20181;-66
2022/11/13 09:08:39;;;;;;;1999.90;999.90;;;;;;;4.77;100.00;95253.84;4978224;28;20320;-53
2022/11/13 09:11:05;;;;;;;1999.90;999.90;;;;;;;4.80;100.00;95290.94;4977060;28;20208;-57
2022/11/13 09:13:32;;;;;;;1999.90;999.90;;;;;;;4.77;100.00;95335.75;4977874;28;20179;-58
2022/11/13 09:15:59;;;;;;;1999.90;999.90;;;;;;;5.46;100.00;95364.78;4977018;28;20232;-58
2022/11/13 09:18:24;;;;;;;1999.90;999.90;;;;;;;5.86;100.00;95396.53;4961378;28;20269;-58
2022/11/13 09:20:49;;;;;;;1999.90;999.90;;;;;;;6.49;100.00;95456.78;4977397;28;20270;-58
2022/11/13 09:23:15;;;;;;;1999.90;999.90;;;;;;;6.74;100.00;95528.31;4977119;28;20174;-59
2022/11/13 09:25:40;;;;;;;1999.90;999.90;;;;;;;7.52;100.00;95594.81;4978348;28;20281;-61
2022/11/13 09:28:06;;;;;;;1999.90;999.90;;;;;;;8.55;100.00;95641.19;4976579;28;20183;-64
2022/11/13 09:30:32;;;;;;;1999.90;999.90;;;;;;;7.41;100.00;95719.72;4977216;28;20193;-64
2022/11/13 09:32:59;;;;;;;1999.90;999.90;;;;;;;7.30;100.00;95746.00;4960980;28;20208;-63
2022/11/13 09:35:35;;;;;;;1999.90;999.90;;;;;;;7.49;100.00;95753.94;4961446;28;20204;-63
2022/11/13 09:38:13;;;;;;;1999.90;999.90;;;;;;;6.83;100.00;95775.72;4977506;28;20231;-67
2022/11/13 09:41:02;;;;;;;1999.90;999.90;;;;;;;6.28;100.00;95776.53;4977775;28;20210;-69
2022/11/13 09:43:36;;;;;;;1999.90;999.90;;;;;;;6.22;100.00;95762.53;4961002;28;20176;-56
2022/11/13 09:46:10;;;;;;;1999.90;999.90;;;;;;;5.99;100.00;95747.47;4961341;28;20176;-60
2022/11/13 09:48:39;;;;;;;1999.90;999.90;;;;;;;5.62;100.00;95733.72;4960785;28;20203;-60
2022/11/13 09:51:15;;;;;;;1999.90;999.90;;;;;;;5.30;100.00;95723.47;4976787;28;20246;-60
2022/11/13 09:53:41;;;;;;;1999.90;999.90;;;;;;;5.44;100.00;95693.94;4961289;28;20211;-62
2022/11/13 09:56:44;;;;;;;1999.90;999.90;;;;;;;5.81;100.00;95662.41;4976522;28;20266;-61
2022/11/13 09:59:22;;;;;;;1999.90;999.90;;;;;;;5.84;100.00;95648.13;4977608;28;20262;-60
2022/11/13 10:02:09;;;;;;;1999.90;999.90;;;;;;;5.97;100.00;95657.59;4961018;28;20179;-56
2022/11/13 10:04:59;;;;;;;1999.90;999.90;;;;;;;5.67;100.00;95659.47;4960903;28;20219;-60
2022/11/13 10:07:56;;;;;;;1999.90;999.90;;;;;;;5.98;100.00;95656.47;4960539;28;20186;-60
2022/11/13 10:10:39;;;;;;;1999.90;999.90;;;;;;;5.60;100.00;95643.09;4943817;28;20185;-61
2022/11/13 10:13:11;;;;;;;1999.90;999.90;;;;;;;6.05;100.00;95629.47;4976294;28;20183;-60
2022/11/13 10:15:39;;;;;;;1999.90;999.90;;;;;;;6.06;100.00;95612.03;4976297;28;20234;-60
2022/11/13 10:18:11;;;;;;;1999.90;999.90;;;;;;;6.27;100.00;95599.50;4976305;28;20192;-60
2022/11/13 10:20:50;;;;;;;1999.90;999.90;;;;;;;6.32;100.00;95598.41;4976886;28;20211;-51
2022/11/13 10:23:23;;;;;;;1999.90;999.90;;;;;;;6.19;100.00;95597.88;4960617;28;20211;-59
2022/11/13 10:25:51;;;;;;;1999.90;999.90;;;;;;;6.41;100.00;95599.66;4960052;28;20184;-61
2022/11/13 10:28:21;;;;;;;1999.90;999.90;;;;;;;6.54;100.00;95598.28;4959941;28;20179;-60
2022/11/13 10:30:46;;;;;;;1999.90;999.90;;;;;;;6.53;100.00;95604.06;4976368;28;20176;-60
2022/11/13 10:33:17;;;;;;;1999.90;999.90;;;;;;;6.75;100.00;95611.25;4960472;28;20185;-60
2022/11/13 10:35:55;;;;;;;1999.90;999.90;;;;;;;6.93;100.00;95609.50;4976423;28;20344;-60
2022/11/13 10:38:38;;;;;;;1999.90;999.90;;;;;;;6.80;100.00;95619.84;4960391;28;20269;-60
2022/11/13 10:41:11;;;;;;;1999.90;999.90;;;;;;;7.03;100.00;95616.94;4960206;28;20187;-56
2022/11/13 10:44:14;;;;;;;1999.90;999.90;;;;;;;7.35;100.00;95606.34;4959670;28;20238;-56
2022/11/13 10:46:39;;;;;;;1999.90;999.90;;;;;;;7.19;100.00;95617.47;4959352;28;20597;-53
2022/11/13 10:49:20;;;;;;;1999.90;999.90;;;;;;;7.37;100.00;95610.25;4959593;28;20172;-54
2022/11/13 10:51:55;;;;;;;1999.90;999.90;;;;;;;7.15;100.00;95613.97;4975279;28;20184;-56
2022/11/13 10:54:23;;;;;;;1999.90;999.90;;;;;;;6.89;100.00;95619.53;4975212;28;20229;-55
2022/11/13 10:57:03;;;;;;;1999.90;999.90;;;;;;;6.82;100.00;95612.09;4959475;28;20261;-58
2022/11/13 10:59:44;;;;;;;1999.90;999.90;;;;;;;6.63;100.00;95597.97;4975969;28;20188;-60